createdAt,value
2023-04-19T00:00:08.848Z,9.41
2023-04-19T00:02:36.578Z,9.45
2023-04-19T00:05:04.082Z,9.33
2023-04-19T00:07:31.013Z,9.44
2023-04-19T00:09:57.845Z,9.40
2023-04-19T00:12:25.088Z,9.47
2023-04-19T00:14:51.907Z,9.32
2023-04-19T00:17:19.621Z,9.29
2023-04-19T00:19:46.477Z,9.31
2023-04-19T00:22:13.383Z,9.27
2023-04-19T00:24:40.449Z,9.24
2023-04-19T00:27:07.289Z,9.17
2023-04-19T00:29:34.199Z,9.25
2023-04-19T00:32:01.038Z,9.25
2023-04-19T00:34:27.930Z,9.28
2023-04-19T00:36:54.755Z,9.30
2023-04-19T00:39:21.625Z,9.33
2023-04-19T00:41:48.461Z,9.07
2023-04-19T00:44:15.490Z,9.02
2023-04-19T00:46:43.312Z,8.90
2023-04-19T00:49:10.643Z,8.99
2023-04-19T00:51:37.484Z,9.05
2023-04-19T00:54:04.629Z,9.12
2023-04-19T00:56:34.364Z,9.16
2023-04-19T00:59:01.468Z,9.08
2023-04-19T01:01:29.321Z,8.89
2023-04-19T01:03:56.422Z,8.94
2023-04-19T01:06:23.451Z,9.05
2023-04-19T01:08:50.451Z,8.94
2023-04-19T01:11:17.309Z,8.92
2023-04-19T01:13:44.130Z,8.98
2023-04-19T01:16:11.312Z,9.09
2023-04-19T01:18:39.619Z,9.12
2023-04-19T01:21:08.908Z,9.08
2023-04-19T01:23:36.846Z,9.00
2023-04-19T01:26:03.730Z,9.00
2023-04-19T01:28:30.627Z,8.80
2023-04-19T01:30:57.538Z,8.81
2023-04-19T01:33:24.453Z,8.66
2023-04-19T01:35:51.307Z,8.91
2023-04-19T01:38:18.329Z,8.92
2023-04-19T01:40:45.765Z,8.88
2023-04-19T01:43:18.751Z,8.87
2023-04-19T01:45:46.063Z,8.62
2023-04-19T01:48:12.902Z,8.88
2023-04-19T01:50:39.726Z,8.85
2023-04-19T01:53:06.551Z,8.67
2023-04-19T01:55:33.375Z,8.65
2023-04-19T01:58:00.259Z,8.65
2023-04-19T02:00:27.072Z,8.58
2023-04-19T02:02:53.930Z,8.47
2023-04-19T02:05:21.281Z,8.50
2023-04-19T02:07:48.175Z,8.65
2023-04-19T02:10:15.096Z,8.74
2023-04-19T02:12:43.078Z,8.66
2023-04-19T02:15:10.498Z,8.72
2023-04-19T02:17:37.425Z,8.66
2023-04-19T02:20:06.054Z,8.64
2023-04-19T02:22:32.879Z,8.66
2023-04-19T02:24:59.734Z,8.48
2023-04-19T02:27:26.782Z,8.60
2023-04-19T02:29:53.592Z,8.59
2023-04-19T02:32:20.453Z,8.60
2023-04-19T02:34:47.380Z,8.59
2023-04-19T02:37:14.218Z,8.64
2023-04-19T02:39:42.824Z,8.67
2023-04-19T02:42:09.641Z,8.73
2023-04-19T02:44:36.503Z,8.65
2023-04-19T02:47:03.487Z,8.69
2023-04-19T02:49:34.850Z,8.74
2023-04-19T02:52:01.784Z,8.71
2023-04-19T02:54:28.633Z,8.73
2023-04-19T02:56:55.462Z,8.71
2023-04-19T02:59:22.300Z,8.77
2023-04-19T03:01:49.160Z,8.59
2023-04-19T03:04:17.431Z,8.64
2023-04-19T03:06:44.823Z,8.75
2023-04-19T03:09:11.914Z,8.65
2023-04-19T03:11:38.960Z,8.64
2023-04-19T03:14:05.813Z,8.69
2023-04-19T03:16:32.647Z,8.64
2023-04-19T03:18:59.553Z,8.76
2023-04-19T03:21:27.738Z,8.79
2023-04-19T03:23:55.845Z,8.58
2023-04-19T03:26:22.830Z,8.54
2023-04-19T03:28:49.703Z,8.58
2023-04-19T03:31:16.856Z,8.68
2023-04-19T03:33:43.970Z,8.65
2023-04-19T03:36:10.799Z,8.67
2023-04-19T03:38:37.801Z,8.52
2023-04-19T03:41:04.727Z,8.53
2023-04-19T03:43:31.553Z,8.56
2023-04-19T03:45:58.760Z,8.45
2023-04-19T03:48:25.649Z,8.47
2023-04-19T03:50:52.491Z,8.61
2023-04-19T03:53:19.579Z,8.52
2023-04-19T03:55:46.399Z,8.54
2023-04-19T03:58:13.216Z,8.55
2023-04-19T04:00:40.051Z,8.67
2023-04-19T04:03:07.016Z,8.74
2023-04-19T04:05:36.265Z,8.71
2023-04-19T04:08:03.164Z,8.73
2023-04-19T04:10:30.036Z,8.68
2023-04-19T04:12:56.911Z,8.69
2023-04-19T04:15:23.753Z,8.72
2023-04-19T04:17:51.396Z,8.70
2023-04-19T04:20:18.330Z,8.66
2023-04-19T04:22:48.496Z,8.60
2023-04-19T04:25:19.562Z,8.66
2023-04-19T04:27:51.832Z,8.68
2023-04-19T04:30:18.751Z,8.66
2023-04-19T04:32:47.169Z,8.71
2023-04-19T04:35:14.036Z,8.73
2023-04-19T04:37:40.954Z,8.74
2023-04-19T04:40:09.273Z,8.71
2023-04-19T04:42:37.927Z,8.66
2023-04-19T04:45:05.868Z,8.55
2023-04-19T04:47:34.342Z,8.56
2023-04-19T04:50:02.528Z,8.61
2023-04-19T04:52:29.799Z,8.66
2023-04-19T04:54:56.671Z,8.66
2023-04-19T04:57:23.500Z,8.68
2023-04-19T04:59:50.341Z,8.67
2023-04-19T05:02:17.516Z,8.63
2023-04-19T05:04:44.509Z,8.65
2023-04-19T05:07:11.878Z,8.71
2023-04-19T05:09:38.743Z,8.65
2023-04-19T05:12:06.016Z,8.74
2023-04-19T05:14:32.848Z,8.77
2023-04-19T05:16:59.725Z,8.77
2023-04-19T05:19:26.568Z,8.62
2023-04-19T05:21:53.444Z,8.51
2023-04-19T05:24:20.448Z,8.47
2023-04-19T05:26:47.278Z,8.65
2023-04-19T05:29:14.457Z,8.58
2023-04-19T05:31:41.400Z,8.49
2023-04-19T05:34:08.354Z,8.62
2023-04-19T05:36:35.169Z,8.67
2023-04-19T05:39:02.077Z,8.62
2023-04-19T05:41:28.898Z,8.68
2023-04-19T05:43:55.752Z,8.69
2023-04-19T05:46:22.690Z,8.76
2023-04-19T05:48:49.578Z,8.75
2023-04-19T05:51:18.374Z,8.81
2023-04-19T05:53:46.527Z,8.70
2023-04-19T05:56:13.503Z,8.63
2023-04-19T05:58:40.329Z,8.83
2023-04-19T06:01:07.475Z,8.87
2023-04-19T06:03:34.594Z,8.71
2023-04-19T06:06:01.855Z,8.76
2023-04-19T06:08:28.825Z,8.75
2023-04-19T06:11:02.156Z,8.83
2023-04-19T06:13:35.052Z,8.73
2023-04-19T06:16:02.686Z,8.83
2023-04-19T06:18:29.708Z,8.89
2023-04-19T06:20:56.605Z,8.81
2023-04-19T06:23:23.810Z,8.74
2023-04-19T06:25:50.605Z,8.79
2023-04-19T06:28:17.476Z,8.82
2023-04-19T06:30:44.665Z,8.82
2023-04-19T06:33:11.580Z,8.85
2023-04-19T06:35:38.576Z,8.73
2023-04-19T06:38:05.522Z,8.88
2023-04-19T06:40:32.396Z,8.92
2023-04-19T06:42:59.235Z,8.94
2023-04-19T06:45:26.362Z,9.00
2023-04-19T06:47:53.258Z,9.01
2023-04-19T06:50:20.338Z,9.00
2023-04-19T06:52:47.175Z,9.09
2023-04-19T06:55:14.019Z,9.11
2023-04-19T06:57:41.101Z,9.15
2023-04-19T07:00:08.999Z,9.01
2023-04-19T07:02:36.090Z,8.94
2023-04-19T07:05:04.022Z,9.06
2023-04-19T07:07:30.881Z,9.04
2023-04-19T07:09:57.709Z,8.86
2023-04-19T07:12:24.523Z,8.94
2023-04-19T07:14:56.578Z,9.02
2023-04-19T07:17:24.079Z,8.88
2023-04-19T07:19:51.083Z,8.84
2023-04-19T07:22:17.911Z,8.75
2023-04-19T07:24:45.097Z,8.68
2023-04-19T07:27:12.304Z,8.80
2023-04-19T07:29:40.507Z,8.87
2023-04-19T07:32:14.078Z,8.79
2023-04-19T07:34:41.620Z,8.87
2023-04-19T07:37:08.726Z,8.90
2023-04-19T07:39:35.548Z,9.04
2023-04-19T07:42:02.512Z,9.08
2023-04-19T07:44:29.393Z,9.15
2023-04-19T07:46:56.499Z,9.13
2023-04-19T07:49:23.478Z,9.06
2023-04-19T07:51:50.876Z,9.11
2023-04-19T07:54:20.328Z,9.10
2023-04-19T07:56:47.247Z,9.07
2023-04-19T07:59:14.086Z,9.08
2023-04-19T08:01:42.458Z,9.22
2023-04-19T08:04:10.024Z,9.27
2023-04-19T08:06:39.915Z,9.41
2023-04-19T08:09:07.046Z,9.42
2023-04-19T08:11:33.896Z,9.44
2023-04-19T08:14:09.321Z,9.49
2023-04-19T08:17:19.538Z,9.37
2023-04-19T08:19:28.667Z,9.40
2023-04-19T08:21:55.509Z,9.41
2023-04-19T08:24:22.374Z,9.34
2023-04-19T08:26:53.938Z,9.49
2023-04-19T08:29:22.452Z,9.54
2023-04-19T08:31:49.730Z,9.57
2023-04-19T08:34:16.617Z,9.42
2023-04-19T08:36:51.820Z,9.42
2023-04-19T08:39:32.379Z,9.26
2023-04-19T08:42:18.376Z,9.19
2023-04-19T08:45:23.505Z,9.17
2023-04-19T08:47:58.689Z,9.21
2023-04-19T08:50:34.404Z,9.10
2023-04-19T08:53:21.035Z,9.24
2023-04-19T08:56:06.828Z,9.31
2023-04-19T08:58:54.834Z,9.33
2023-04-19T09:01:33.864Z,9.30
2023-04-19T09:04:26.434Z,9.36
2023-04-19T09:06:53.383Z,9.48
2023-04-19T09:09:36.970Z,9.50
2023-04-19T09:12:18.300Z,9.59
2023-04-19T09:15:00.467Z,9.71
2023-04-19T09:17:28.607Z,9.73
2023-04-19T09:19:55.673Z,9.73
2023-04-19T09:22:26.397Z,9.93
2023-04-19T09:25:30.653Z,9.65
2023-04-19T09:27:40.520Z,9.78
2023-04-19T09:30:14.802Z,9.98
2023-04-19T09:32:49.602Z,10.11
2023-04-19T09:35:16.709Z,10.25
2023-04-19T09:40:27.138Z,10.38
2023-04-19T09:43:08.886Z,10.38
2023-04-19T09:45:43.768Z,10.37
2023-04-19T09:48:12.218Z,10.37
2023-04-19T09:51:01.985Z,10.57
2023-04-19T09:53:35.527Z,10.61
2023-04-19T09:56:03.825Z,10.70
2023-04-19T09:58:46.101Z,10.76
2023-04-19T10:01:17.107Z,10.95
2023-04-19T10:03:50.406Z,10.92
2023-04-19T10:08:51.410Z,10.91
2023-04-19T10:11:22.178Z,10.98
2023-04-19T10:13:51.234Z,10.92
2023-04-19T10:16:20.225Z,11.11
2023-04-19T10:18:50.484Z,11.05
2023-04-19T10:21:19.420Z,11.15
2023-04-19T10:23:47.411Z,11.27
2023-04-19T10:26:14.286Z,11.22
2023-04-19T10:28:42.745Z,11.31
2023-04-19T10:31:16.334Z,11.28
2023-04-19T10:33:43.356Z,11.20
2023-04-19T10:36:14.662Z,11.38
2023-04-19T10:38:49.675Z,11.40
2023-04-19T10:41:19.254Z,11.34
2023-04-19T10:43:55.366Z,11.29
2023-04-19T10:46:22.258Z,11.49
2023-04-19T10:49:00.620Z,11.43
2023-04-19T10:51:35.835Z,11.67
2023-04-19T10:54:07.717Z,11.95
2023-04-19T10:56:34.618Z,12.01
2023-04-19T10:59:01.539Z,12.31
2023-04-19T11:01:46.177Z,12.43
2023-04-19T11:04:18.217Z,12.80
2023-04-19T11:06:51.613Z,12.84
2023-04-19T11:09:41.782Z,13.16
2023-04-19T11:12:12.219Z,13.39
2023-04-19T11:14:47.694Z,13.60
2023-04-19T11:17:25.948Z,13.72
2023-04-19T11:20:03.404Z,13.70
2023-04-19T11:22:30.158Z,13.73
2023-04-19T11:24:57.066Z,13.56
2023-04-19T11:27:23.924Z,13.64
2023-04-19T11:29:50.734Z,13.27
2023-04-19T11:32:21.711Z,12.99
2023-04-19T11:34:48.560Z,12.97
2023-04-19T11:37:15.364Z,12.72
2023-04-19T11:39:47.565Z,12.62
2023-04-19T11:42:21.620Z,12.44
2023-04-19T11:44:52.481Z,12.11
2023-04-19T11:47:20.490Z,11.99
2023-04-19T11:49:47.384Z,12.16
2023-04-19T11:52:23.198Z,12.02
2023-04-19T11:54:53.811Z,11.92
2023-04-19T11:57:31.653Z,11.92
2023-04-19T12:00:12.527Z,11.95
2023-04-19T12:02:44.034Z,12.04
2023-04-19T12:05:14.548Z,12.12
2023-04-19T12:08:08.619Z,11.95
2023-04-19T12:10:36.339Z,12.01
2023-04-19T12:13:18.207Z,11.98
2023-04-19T12:15:47.118Z,12.11
2023-04-19T12:18:14.844Z,12.26
2023-04-19T12:20:49.360Z,12.35
2023-04-19T12:23:18.202Z,12.36
2023-04-19T12:25:50.064Z,12.57
2023-04-19T12:28:17.286Z,12.60
2023-04-19T12:30:44.333Z,12.52
2023-04-19T12:33:11.862Z,12.49
2023-04-19T12:35:39.359Z,12.70
2023-04-19T12:38:06.303Z,12.88
2023-04-19T12:40:33.713Z,12.89
2023-04-19T12:43:00.609Z,12.88
2023-04-19T12:45:27.993Z,12.81
2023-04-19T12:47:54.911Z,12.91
2023-04-19T12:50:21.970Z,13.00
2023-04-19T12:52:48.868Z,13.07
2023-04-19T12:55:15.745Z,13.18
2023-04-19T12:57:42.687Z,13.14
2023-04-19T13:00:11.045Z,13.11
2023-04-19T13:02:38.597Z,13.06
2023-04-19T13:05:06.637Z,12.62
2023-04-19T13:07:33.520Z,12.48
2023-04-19T13:10:00.602Z,12.43
2023-04-19T13:12:28.615Z,12.37
2023-04-19T13:14:55.478Z,12.22
2023-04-19T13:17:22.387Z,12.24
2023-04-19T13:19:49.284Z,12.29
2023-04-19T13:22:16.146Z,12.38
2023-04-19T13:24:43.028Z,12.24
2023-04-19T13:27:09.955Z,12.31
2023-04-19T13:29:37.312Z,12.17
2023-04-19T13:32:07.797Z,12.07
2023-04-19T13:34:35.523Z,11.95
2023-04-19T13:37:02.379Z,11.83
2023-04-19T13:39:29.222Z,11.87
2023-04-19T13:41:56.131Z,11.84
2023-04-19T13:44:23.222Z,11.94
2023-04-19T13:46:50.209Z,11.78
2023-04-19T13:49:19.240Z,11.82
2023-04-19T13:51:50.840Z,11.82
2023-04-19T13:54:19.587Z,11.94
2023-04-19T13:56:48.647Z,11.83
2023-04-19T13:59:16.928Z,11.64
2023-04-19T14:01:43.730Z,11.68
2023-04-19T14:04:10.911Z,11.79
2023-04-19T14:06:38.071Z,11.80
2023-04-19T14:09:04.933Z,11.80
2023-04-19T14:11:31.818Z,11.85
2023-04-19T14:13:58.651Z,11.85
2023-04-19T14:16:25.683Z,11.89
2023-04-19T14:18:52.902Z,11.90
2023-04-19T14:21:20.005Z,11.57
2023-04-19T14:23:47.008Z,11.55
2023-04-19T14:26:14.719Z,11.52
2023-04-19T14:28:41.592Z,11.63
2023-04-19T14:31:08.429Z,11.61
2023-04-19T14:33:35.500Z,11.57
2023-04-19T14:36:02.378Z,11.37
2023-04-19T14:38:29.226Z,11.20
2023-04-19T14:40:56.486Z,11.29
2023-04-19T14:43:23.450Z,11.09
2023-04-19T14:45:52.981Z,11.24
2023-04-19T14:48:22.064Z,11.13
2023-04-19T14:50:49.635Z,11.21
2023-04-19T14:53:16.579Z,11.29
2023-04-19T14:55:43.557Z,11.30
2023-04-19T14:58:10.420Z,11.25
2023-04-19T15:00:37.311Z,11.07
2023-04-19T15:03:04.497Z,10.90
2023-04-19T15:05:35.590Z,11.02
2023-04-19T15:08:02.652Z,10.95
2023-04-19T15:10:29.561Z,10.98
2023-04-19T15:12:56.429Z,10.92
2023-04-19T15:15:23.295Z,11.05
2023-04-19T15:17:50.241Z,10.92
2023-04-19T15:20:17.342Z,10.91
2023-04-19T15:22:44.183Z,10.78
2023-04-19T15:25:11.085Z,10.69
2023-04-19T15:27:37.972Z,10.68
2023-04-19T15:30:06.462Z,10.31
2023-04-19T15:32:36.914Z,10.22
2023-04-19T15:35:07.292Z,10.33
2023-04-19T15:37:34.130Z,10.29
2023-04-19T15:40:01.066Z,10.26
2023-04-19T15:42:27.890Z,10.13
2023-04-19T15:44:54.818Z,10.06
2023-04-19T15:47:21.808Z,10.09
2023-04-19T15:49:48.671Z,10.12
2023-04-19T15:52:15.495Z,10.11
2023-04-19T15:54:42.348Z,10.11
2023-04-19T15:57:09.162Z,9.92
2023-04-19T15:59:36.089Z,9.81
2023-04-19T16:02:03.044Z,9.71
2023-04-19T16:04:31.341Z,9.55
2023-04-19T16:06:59.479Z,9.53
2023-04-19T16:09:26.620Z,9.51
2023-04-19T16:11:53.524Z,9.44
2023-04-19T16:14:20.380Z,9.25
2023-04-19T16:16:47.978Z,9.09
2023-04-19T16:19:15.098Z,9.03
2023-04-19T16:21:42.126Z,8.53
2023-04-19T16:24:08.973Z,8.74
2023-04-19T16:26:35.820Z,8.65
2023-04-19T16:29:02.631Z,8.52
2023-04-19T16:31:29.560Z,8.58
2023-04-19T16:33:56.434Z,8.55
2023-04-19T16:36:23.267Z,8.64
2023-04-19T16:38:50.082Z,8.65
2023-04-19T16:41:17.415Z,8.32
2023-04-19T16:43:44.575Z,8.49
2023-04-19T16:46:11.440Z,8.46
2023-04-19T16:48:38.315Z,8.44
2023-04-19T16:51:05.292Z,8.42
2023-04-19T16:53:32.402Z,8.15
2023-04-19T16:56:00.498Z,8.34
2023-04-19T16:58:27.342Z,8.25
2023-04-19T17:00:55.261Z,8.25
2023-04-19T17:03:22.429Z,8.19
2023-04-19T17:05:49.391Z,8.26
2023-04-19T17:08:16.333Z,8.12
2023-04-19T17:10:43.131Z,8.06
2023-04-19T17:13:09.998Z,8.03
2023-04-19T17:15:38.739Z,8.02
2023-04-19T17:18:05.925Z,7.89
2023-04-19T17:20:32.902Z,7.90
2023-04-19T17:22:59.800Z,7.85
2023-04-19T17:25:26.635Z,7.96
2023-04-19T17:27:53.497Z,7.94
2023-04-19T17:30:21.027Z,7.86
2023-04-19T17:32:47.909Z,7.87
2023-04-19T17:35:15.561Z,7.95
2023-04-19T17:37:43.791Z,7.94
2023-04-19T17:40:11.213Z,7.96
2023-04-19T17:42:38.198Z,7.89
2023-04-19T17:45:10.228Z,7.93
2023-04-19T17:47:40.965Z,7.89
2023-04-19T17:50:13.505Z,7.92
2023-04-19T17:52:40.542Z,7.86
2023-04-19T17:55:08.227Z,7.89
2023-04-19T17:57:35.476Z,7.85
2023-04-19T18:00:06.750Z,7.94
2023-04-19T18:03:02.645Z,7.92
2023-04-19T18:05:29.614Z,7.96
2023-04-19T18:07:56.764Z,7.92
2023-04-19T18:10:23.606Z,7.93
2023-04-19T18:12:50.815Z,7.95
2023-04-19T18:15:17.751Z,8.01
2023-04-19T18:17:44.621Z,7.96
2023-04-19T18:20:13.695Z,7.92
2023-04-19T18:22:40.824Z,7.90
2023-04-19T18:25:08.228Z,7.92
2023-04-19T18:27:35.322Z,7.93
2023-04-19T18:30:04.164Z,7.92
2023-04-19T18:32:32.192Z,7.87
2023-04-19T18:34:59.075Z,7.86
2023-04-19T18:37:25.932Z,7.82
2023-04-19T18:39:52.749Z,7.80
2023-04-19T18:42:19.608Z,7.81
2023-04-19T18:44:53.656Z,7.80
2023-04-19T18:47:21.532Z,7.83
2023-04-19T18:50:02.874Z,7.82
2023-04-19T18:52:31.907Z,7.82
2023-04-19T18:54:59.015Z,7.79
2023-04-19T18:57:27.632Z,7.74
2023-04-19T18:59:56.616Z,7.74
2023-04-19T19:02:23.607Z,7.71
2023-04-19T19:04:57.829Z,7.71
2023-04-19T19:10:06.315Z,7.70
2023-04-19T19:12:43.757Z,7.68
2023-04-19T19:15:10.937Z,7.65
2023-04-19T19:17:38.157Z,7.51
2023-04-19T19:20:06.956Z,7.56
2023-04-19T19:22:34.383Z,7.55
2023-04-19T19:25:01.369Z,7.50
2023-04-19T19:27:28.352Z,7.50
2023-04-19T19:29:55.453Z,7.41
2023-04-19T19:32:22.467Z,7.53
2023-04-19T19:34:56.558Z,7.51
2023-04-19T19:37:27.761Z,7.50
2023-04-19T19:39:56.469Z,7.48
2023-04-19T19:42:24.282Z,7.53
2023-04-19T19:44:57.006Z,7.50
2023-04-19T19:47:25.291Z,7.39
2023-04-19T19:50:21.346Z,7.42
2023-04-19T19:52:39.178Z,7.39
2023-04-19T19:55:08.653Z,7.35
2023-04-19T20:00:28.114Z,7.37
2023-04-19T20:02:58.962Z,7.37
2023-04-19T20:05:26.659Z,7.37
2023-04-19T20:08:14.578Z,7.43
2023-04-19T20:10:43.095Z,7.27
2023-04-19T20:13:12.011Z,7.14
2023-04-19T20:15:39.971Z,7.22
2023-04-19T20:18:08.292Z,7.20
2023-04-19T20:20:36.711Z,7.28
2023-04-19T20:23:03.677Z,7.31
2023-04-19T20:25:32.688Z,7.22
2023-04-19T20:28:02.505Z,7.20
2023-04-19T20:30:29.344Z,7.20
2023-04-19T20:32:56.291Z,7.11
2023-04-19T20:35:23.404Z,7.19
2023-04-19T20:37:51.083Z,7.13
2023-04-19T20:40:18.942Z,7.15
2023-04-19T20:42:45.772Z,7.15
2023-04-19T20:45:16.016Z,7.05
2023-04-19T20:47:43.269Z,6.97
2023-04-19T20:50:10.796Z,7.06
2023-04-19T20:52:37.843Z,7.10
2023-04-19T20:55:05.179Z,7.11
2023-04-19T20:57:32.028Z,7.13
2023-04-19T20:59:59.617Z,7.14
2023-04-19T21:02:26.703Z,7.08
2023-04-19T21:04:53.762Z,7.09
2023-04-19T21:07:20.710Z,7.07
2023-04-19T21:09:47.536Z,6.99
2023-04-19T21:12:14.380Z,7.08
2023-04-19T21:14:41.290Z,7.04
2023-04-19T21:17:08.098Z,7.05
2023-04-19T21:19:37.049Z,7.04
2023-04-19T21:22:03.889Z,7.11
2023-04-19T21:24:30.738Z,7.02
2023-04-19T21:26:57.944Z,6.97
2023-04-19T21:29:25.496Z,6.95
2023-04-19T21:31:52.387Z,6.81
2023-04-19T21:34:19.264Z,6.77
2023-04-19T21:36:46.084Z,6.73
2023-04-19T21:39:12.973Z,6.46
2023-04-19T21:41:39.825Z,6.38
2023-04-19T21:44:07.230Z,6.29
2023-04-19T21:46:35.123Z,6.29
2023-04-19T21:49:02.052Z,6.20
2023-04-19T21:51:28.871Z,6.25
2023-04-19T21:53:55.730Z,6.16
2023-04-19T21:56:22.560Z,6.23
2023-04-19T21:58:49.441Z,6.27
2023-04-19T22:03:43.493Z,6.32
2023-04-19T22:06:10.455Z,6.28
2023-04-19T22:08:37.323Z,6.24
2023-04-19T22:11:04.393Z,6.14
2023-04-19T22:13:33.663Z,6.25
2023-04-19T22:16:02.540Z,6.12
2023-04-19T22:18:29.455Z,6.13
2023-04-19T22:20:56.267Z,6.14
2023-04-19T22:23:23.122Z,6.19
2023-04-19T22:25:50.097Z,6.22
2023-04-19T22:28:16.954Z,6.06
2023-04-19T22:30:43.821Z,6.05
2023-04-19T22:33:10.901Z,6.18
2023-04-19T22:35:37.738Z,6.18
2023-04-19T22:38:04.582Z,6.24
2023-04-19T22:40:31.406Z,6.18
2023-04-19T22:42:58.254Z,6.15
2023-04-19T22:45:25.128Z,6.24
2023-04-19T22:47:51.977Z,6.23
2023-04-19T22:50:19.153Z,6.24
2023-04-19T22:52:46.063Z,6.10
2023-04-19T22:55:13.009Z,6.10
2023-04-19T22:57:39.846Z,6.16
2023-04-19T23:00:10.657Z,6.12
2023-04-19T23:02:38.825Z,6.13
2023-04-19T23:05:06.818Z,6.14
2023-04-19T23:07:34.017Z,6.18
2023-04-19T23:10:01.254Z,6.20
2023-04-19T23:12:31.287Z,6.14
2023-04-19T23:14:58.575Z,6.14
2023-04-19T23:17:25.772Z,6.17
2023-04-19T23:19:52.613Z,6.24
2023-04-19T23:22:19.534Z,6.18
2023-04-19T23:24:46.480Z,6.15
2023-04-19T23:27:13.357Z,6.11
2023-04-19T23:29:40.234Z,6.14
2023-04-19T23:32:07.096Z,6.05
2023-04-19T23:34:33.903Z,6.10
2023-04-19T23:37:00.909Z,6.10
2023-04-19T23:39:27.743Z,6.07
2023-04-19T23:41:54.628Z,6.03
2023-04-19T23:44:21.675Z,5.94
2023-04-19T23:46:48.578Z,5.96
2023-04-19T23:49:15.672Z,5.94
2023-04-19T23:51:42.855Z,5.91
2023-04-19T23:54:09.683Z,5.92
2023-04-19T23:56:36.518Z,5.91
2023-04-19T23:59:03.509Z,5.96
